sensor_id;sensor_type;location;lat;lon;timestamp;pressure;altitude;pressure_sealevel;temperature;humidity
28701;BME280;15877;52.344;16.790;2023-03-04T00:02:02;100642.45;;;4.84;74.69
28701;BME280;15877;52.344;16.790;2023-03-04T00:04:35;100644.05;;;5.00;73.89
28701;BME280;15877;52.344;16.790;2023-03-04T00:07:07;100640.72;;;5.05;73.64
28701;BME280;15877;52.344;16.790;2023-03-04T00:09:40;100637.74;;;4.83;74.16
28701;BME280;15877;52.344;16.790;2023-03-04T00:12:12;100637.94;;;4.94;74.06
28701;BME280;15877;52.344;16.790;2023-03-04T00:14:45;100640.17;;;4.89;74.03
28701;BME280;15877;52.344;16.790;2023-03-04T00:17:18;100642.66;;;4.99;73.79
28701;BME280;15877;52.344;16.790;2023-03-04T00:19:50;100644.02;;;4.92;73.82
28701;BME280;15877;52.344;16.790;2023-03-04T00:22:23;100644.77;;;4.89;73.97
28701;BME280;15877;52.344;16.790;2023-03-04T00:24:55;100639.92;;;4.91;73.77
28701;BME280;15877;52.344;16.790;2023-03-04T00:27:28;100642.13;;;4.94;73.72
28701;BME280;15877;52.344;16.790;2023-03-04T00:30:00;100640.60;;;4.92;73.69
28701;BME280;15877;52.344;16.790;2023-03-04T00:32:33;100642.16;;;4.90;73.64
28701;BME280;15877;52.344;16.790;2023-03-04T00:35:07;100636.73;;;4.85;73.70
28701;BME280;15877;52.344;16.790;2023-03-04T00:37:39;100624.95;;;4.82;73.85
28701;BME280;15877;52.344;16.790;2023-03-04T00:40:13;100625.05;;;4.82;74.01
28701;BME280;15877;52.344;16.790;2023-03-04T00:42:46;100630.17;;;4.87;73.77
28701;BME280;15877;52.344;16.790;2023-03-04T00:45:18;100622.95;;;4.94;73.44
28701;BME280;15877;52.344;16.790;2023-03-04T00:47:51;100616.48;;;4.84;73.57
28701;BME280;15877;52.344;16.790;2023-03-04T00:50:24;100617.52;;;4.85;73.77
28701;BME280;15877;52.344;16.790;2023-03-04T00:52:57;100606.40;;;4.90;73.46
28701;BME280;15877;52.344;16.790;2023-03-04T00:55:29;100604.42;;;4.97;73.37
28701;BME280;15877;52.344;16.790;2023-03-04T00:58:02;100606.64;;;4.95;73.21
28701;BME280;15877;52.344;16.790;2023-03-04T01:00:35;100602.92;;;4.95;73.21
28701;BME280;15877;52.344;16.790;2023-03-04T01:03:07;100594.25;;;4.91;73.35
28701;BME280;15877;52.344;16.790;2023-03-04T01:05:40;100592.31;;;4.92;73.25
28701;BME280;15877;52.344;16.790;2023-03-04T01:08:12;100582.41;;;4.94;73.29
28701;BME280;15877;52.344;16.790;2023-03-04T01:10:45;100576.00;;;5.09;72.63
28701;BME280;15877;52.344;16.790;2023-03-04T01:13:18;100571.88;;;5.06;72.67
28701;BME280;15877;52.344;16.790;2023-03-04T01:15:52;100556.85;;;4.94;72.57
28701;BME280;15877;52.344;16.790;2023-03-04T01:18:26;100559.58;;;5.12;72.46
28701;BME280;15877;52.344;16.790;2023-03-04T01:20:58;100555.52;;;5.12;72.36
28701;BME280;15877;52.344;16.790;2023-03-04T01:23:32;100549.05;;;5.13;72.19
28701;BME280;15877;52.344;16.790;2023-03-04T01:26:05;100544.14;;;5.02;72.53
28701;BME280;15877;52.344;16.790;2023-03-04T01:28:37;100539.45;;;5.04;72.34
28701;BME280;15877;52.344;16.790;2023-03-04T01:31:10;100537.41;;;5.03;72.54
28701;BME280;15877;52.344;16.790;2023-03-04T01:33:42;100529.44;;;5.09;72.17
28701;BME280;15877;52.344;16.790;2023-03-04T01:36:15;100516.98;;;5.07;72.12
28701;BME280;15877;52.344;16.790;2023-03-04T01:38:48;100511.23;;;5.10;71.88
28701;BME280;15877;52.344;16.790;2023-03-04T01:41:24;100507.20;;;4.99;72.12
28701;BME280;15877;52.344;16.790;2023-03-04T01:43:58;100503.56;;;5.11;71.78
28701;BME280;15877;52.344;16.790;2023-03-04T01:46:32;100494.80;;;4.75;72.71
28701;BME280;15877;52.344;16.790;2023-03-04T01:49:08;100489.59;;;4.80;72.82
28701;BME280;15877;52.344;16.790;2023-03-04T01:51:46;100488.67;;;4.70;72.94
28701;BME280;15877;52.344;16.790;2023-03-04T01:54:20;100482.83;;;4.63;73.05
28701;BME280;15877;52.344;16.790;2023-03-04T01:56:59;100476.31;;;4.66;73.12
28701;BME280;15877;52.344;16.790;2023-03-04T01:59:32;100466.20;;;4.44;73.67
28701;BME280;15877;52.344;16.790;2023-03-04T02:02:04;100465.44;;;4.59;73.64
28701;BME280;15877;52.344;16.790;2023-03-04T02:04:37;100460.64;;;4.64;73.29
28701;BME280;15877;52.344;16.790;2023-03-04T02:07:10;100458.92;;;4.53;73.61
28701;BME280;15877;52.344;16.790;2023-03-04T02:09:43;100459.80;;;4.56;73.62
28701;BME280;15877;52.344;16.790;2023-03-04T02:12:16;100457.31;;;4.67;73.38
28701;BME280;15877;52.344;16.790;2023-03-04T02:14:48;100455.77;;;4.62;73.45
28701;BME280;15877;52.344;16.790;2023-03-04T02:17:25;100450.87;;;4.59;73.65
28701;BME280;15877;52.344;16.790;2023-03-04T02:20:05;100444.33;;;4.63;73.36
28701;BME280;15877;52.344;16.790;2023-03-04T02:22:42;100450.77;;;4.62;73.46
28701;BME280;15877;52.344;16.790;2023-03-04T02:25:22;100447.42;;;4.78;72.84
28701;BME280;15877;52.344;16.790;2023-03-04T02:27:55;100439.18;;;5.01;71.81
28701;BME280;15877;52.344;16.790;2023-03-04T02:30:28;100439.00;;;4.83;72.25
28701;BME280;15877;52.344;16.790;2023-03-04T02:33:00;100432.88;;;4.57;73.04
28701;BME280;15877;52.344;16.790;2023-03-04T02:35:33;100427.95;;;4.56;73.15
28701;BME280;15877;52.344;16.790;2023-03-04T02:38:06;100429.08;;;4.72;72.72
28701;BME280;15877;52.344;16.790;2023-03-04T02:40:40;100428.13;;;4.77;72.22
28701;BME280;15877;52.344;16.790;2023-03-04T02:43:14;100419.38;;;4.84;72.20
28701;BME280;15877;52.344;16.790;2023-03-04T02:45:48;100420.17;;;4.72;72.42
28701;BME280;15877;52.344;16.790;2023-03-04T02:48:22;100421.80;;;4.88;71.67
28701;BME280;15877;52.344;16.790;2023-03-04T02:50:55;100422.31;;;4.93;71.22
28701;BME280;15877;52.344;16.790;2023-03-04T02:53:28;100423.45;;;4.90;71.30
28701;BME280;15877;52.344;16.790;2023-03-04T02:56:00;100419.36;;;4.81;71.54
28701;BME280;15877;52.344;16.790;2023-03-04T02:58:36;100420.62;;;4.78;71.66
28701;BME280;15877;52.344;16.790;2023-03-04T03:01:08;100420.30;;;4.89;71.45
28701;BME280;15877;52.344;16.790;2023-03-04T03:03:41;100416.41;;;4.77;71.62
28701;BME280;15877;52.344;16.790;2023-03-04T03:06:13;100418.84;;;4.70;72.00
28701;BME280;15877;52.344;16.790;2023-03-04T03:08:46;100410.67;;;4.86;71.51
28701;BME280;15877;52.344;16.790;2023-03-04T03:11:19;100415.45;;;4.80;71.42
28701;BME280;15877;52.344;16.790;2023-03-04T03:13:51;100411.18;;;4.82;71.43
28701;BME280;15877;52.344;16.790;2023-03-04T03:16:24;100408.77;;;4.82;71.64
28701;BME280;15877;52.344;16.790;2023-03-04T03:18:57;100413.16;;;4.84;71.57
28701;BME280;15877;52.344;16.790;2023-03-04T03:21:30;100412.52;;;4.94;71.08
28701;BME280;15877;52.344;16.790;2023-03-04T03:24:02;100412.89;;;4.92;71.23
28701;BME280;15877;52.344;16.790;2023-03-04T03:26:35;100414.20;;;4.97;71.02
28701;BME280;15877;52.344;16.790;2023-03-04T03:29:07;100412.94;;;4.97;70.86
28701;BME280;15877;52.344;16.790;2023-03-04T03:31:39;100417.10;;;4.91;70.95
28701;BME280;15877;52.344;16.790;2023-03-04T03:34:12;100405.81;;;4.81;71.38
28701;BME280;15877;52.344;16.790;2023-03-04T03:36:45;100409.69;;;4.89;71.18
28701;BME280;15877;52.344;16.790;2023-03-04T03:39:18;100411.88;;;4.96;71.19
28701;BME280;15877;52.344;16.790;2023-03-04T03:41:50;100410.13;;;4.95;71.05
28701;BME280;15877;52.344;16.790;2023-03-04T03:44:23;100409.86;;;5.11;70.64
28701;BME280;15877;52.344;16.790;2023-03-04T03:46:55;100395.38;;;4.89;71.02
28701;BME280;15877;52.344;16.790;2023-03-04T03:49:28;100406.19;;;4.94;71.13
28701;BME280;15877;52.344;16.790;2023-03-04T03:52:01;100404.79;;;5.06;70.88
28701;BME280;15877;52.344;16.790;2023-03-04T03:54:33;100397.45;;;5.00;70.99
28701;BME280;15877;52.344;16.790;2023-03-04T03:57:06;100401.09;;;5.01;71.12
28701;BME280;15877;52.344;16.790;2023-03-04T03:59:38;100398.11;;;4.96;71.24
28701;BME280;15877;52.344;16.790;2023-03-04T04:02:11;100401.67;;;5.13;70.81
28701;BME280;15877;52.344;16.790;2023-03-04T04:04:43;100403.24;;;5.14;70.64
28701;BME280;15877;52.344;16.790;2023-03-04T04:07:16;100394.91;;;4.96;70.77
28701;BME280;15877;52.344;16.790;2023-03-04T04:09:48;100408.38;;;5.08;70.49
28701;BME280;15877;52.344;16.790;2023-03-04T04:12:21;100411.48;;;5.21;70.01
28701;BME280;15877;52.344;16.790;2023-03-04T04:14:53;100412.92;;;5.18;70.01
28701;BME280;15877;52.344;16.790;2023-03-04T04:17:26;100411.02;;;5.16;69.98
28701;BME280;15877;52.344;16.790;2023-03-04T04:19:59;100413.42;;;5.17;70.16
28701;BME280;15877;52.344;16.790;2023-03-04T04:22:32;100413.66;;;5.19;70.11
28701;BME280;15877;52.344;16.790;2023-03-04T04:25:06;100413.09;;;5.11;70.30
28701;BME280;15877;52.344;16.790;2023-03-04T04:27:40;100413.70;;;5.09;70.16
28701;BME280;15877;52.344;16.790;2023-03-04T04:30:15;100411.56;;;5.08;70.14
28701;BME280;15877;52.344;16.790;2023-03-04T04:32:47;100408.10;;;5.08;70.39
28701;BME280;15877;52.344;16.790;2023-03-04T04:35:20;100404.68;;;5.09;70.41
28701;BME280;15877;52.344;16.790;2023-03-04T04:37:52;100405.29;;;5.14;70.16
28701;BME280;15877;52.344;16.790;2023-03-04T04:40:24;100402.08;;;5.17;70.06
28701;BME280;15877;52.344;16.790;2023-03-04T04:42:57;100407.70;;;5.07;70.19
28701;BME280;15877;52.344;16.790;2023-03-04T04:45:29;100405.45;;;5.04;70.10
28701;BME280;15877;52.344;16.790;2023-03-04T04:48:02;100395.20;;;4.97;70.30
28701;BME280;15877;52.344;16.790;2023-03-04T04:50:35;100401.50;;;4.99;70.30
28701;BME280;15877;52.344;16.790;2023-03-04T04:53:08;100401.88;;;4.95;70.21
28701;BME280;15877;52.344;16.790;2023-03-04T04:55:41;100399.14;;;5.01;70.26
28701;BME280;15877;52.344;16.790;2023-03-04T04:58:14;100392.31;;;4.96;70.32
28701;BME280;15877;52.344;16.790;2023-03-04T05:00:46;100385.38;;;4.98;70.44
28701;BME280;15877;52.344;16.790;2023-03-04T05:03:19;100392.85;;;5.03;70.17
28701;BME280;15877;52.344;16.790;2023-03-04T05:05:53;100382.50;;;5.08;69.82
28701;BME280;15877;52.344;16.790;2023-03-04T05:08:26;100380.73;;;5.07;70.24
28701;BME280;15877;52.344;16.790;2023-03-04T05:10:58;100377.98;;;5.01;70.06
28701;BME280;15877;52.344;16.790;2023-03-04T05:13:31;100369.09;;;4.95;70.53
28701;BME280;15877;52.344;16.790;2023-03-04T05:16:05;100373.19;;;5.03;70.49
28701;BME280;15877;52.344;16.790;2023-03-04T05:18:38;100365.06;;;4.91;70.91
28701;BME280;15877;52.344;16.790;2023-03-04T05:21:11;100364.91;;;5.01;70.87
28701;BME280;15877;52.344;16.790;2023-03-04T05:23:44;100360.54;;;5.00;70.94
28701;BME280;15877;52.344;16.790;2023-03-04T05:26:18;100345.79;;;5.12;70.53
28701;BME280;15877;52.344;16.790;2023-03-04T05:28:50;100351.52;;;4.89;71.13
28701;BME280;15877;52.344;16.790;2023-03-04T05:31:23;100348.89;;;5.07;70.99
28701;BME280;15877;52.344;16.790;2023-03-04T05:33:55;100347.01;;;5.15;70.58
28701;BME280;15877;52.344;16.790;2023-03-04T05:36:28;100346.23;;;5.06;70.86
28701;BME280;15877;52.344;16.790;2023-03-04T05:39:00;100343.80;;;5.13;70.91
28701;BME280;15877;52.344;16.790;2023-03-04T05:41:33;100340.92;;;5.20;70.69
28701;BME280;15877;52.344;16.790;2023-03-04T05:44:05;100342.17;;;4.88;71.30
28701;BME280;15877;52.344;16.790;2023-03-04T05:46:38;100345.90;;;4.96;71.64
28701;BME280;15877;52.344;16.790;2023-03-04T05:49:10;100352.31;;;5.16;71.09
28701;BME280;15877;52.344;16.790;2023-03-04T05:51:43;100356.36;;;5.09;71.12
28701;BME280;15877;52.344;16.790;2023-03-04T05:54:16;100355.98;;;5.06;71.35
28701;BME280;15877;52.344;16.790;2023-03-04T05:56:49;100356.45;;;5.17;71.19
28701;BME280;15877;52.344;16.790;2023-03-04T05:59:21;100354.86;;;5.18;71.29
28701;BME280;15877;52.344;16.790;2023-03-04T06:01:53;100351.59;;;4.94;72.05
28701;BME280;15877;52.344;16.790;2023-03-04T06:04:27;100346.65;;;5.03;71.95
28701;BME280;15877;52.344;16.790;2023-03-04T06:06:59;100349.52;;;5.11;71.91
28701;BME280;15877;52.344;16.790;2023-03-04T06:09:32;100351.48;;;5.22;71.66
28701;BME280;15877;52.344;16.790;2023-03-04T06:12:05;100345.75;;;5.30;71.19
28701;BME280;15877;52.344;16.790;2023-03-04T06:14:38;100346.35;;;5.25;71.56
28701;BME280;15877;52.344;16.790;2023-03-04T06:17:10;100341.32;;;5.18;71.78
28701;BME280;15877;52.344;16.790;2023-03-04T06:19:44;100341.75;;;5.19;72.15
28701;BME280;15877;52.344;16.790;2023-03-04T06:22:16;100341.63;;;5.22;72.08
28701;BME280;15877;52.344;16.790;2023-03-04T06:24:49;100340.39;;;5.36;71.71
28701;BME280;15877;52.344;16.790;2023-03-04T06:27:22;100342.51;;;5.28;71.88
28701;BME280;15877;52.344;16.790;2023-03-04T06:29:55;100343.67;;;5.37;71.92
28701;BME280;15877;52.344;16.790;2023-03-04T06:32:28;100332.00;;;5.31;71.88
28701;BME280;15877;52.344;16.790;2023-03-04T06:35:00;100347.91;;;5.38;71.95
28701;BME280;15877;52.344;16.790;2023-03-04T06:37:33;100348.18;;;5.47;71.88
28701;BME280;15877;52.344;16.790;2023-03-04T06:40:07;100348.89;;;5.43;71.96
28701;BME280;15877;52.344;16.790;2023-03-04T06:42:41;100347.72;;;5.39;72.31
28701;BME280;15877;52.344;16.790;2023-03-04T06:45:14;100342.06;;;5.36;72.50
28701;BME280;15877;52.344;16.790;2023-03-04T06:47:46;100339.59;;;5.41;72.53
28701;BME280;15877;52.344;16.790;2023-03-04T06:50:19;100340.15;;;5.46;72.52
28701;BME280;15877;52.344;16.790;2023-03-04T06:52:52;100347.96;;;5.55;72.31
28701;BME280;15877;52.344;16.790;2023-03-04T06:55:27;100347.88;;;5.51;72.38
28701;BME280;15877;52.344;16.790;2023-03-04T06:58:00;100342.47;;;5.54;72.57
28701;BME280;15877;52.344;16.790;2023-03-04T07:00:32;100347.88;;;5.51;72.62
28701;BME280;15877;52.344;16.790;2023-03-04T07:03:05;100344.05;;;5.51;72.80
28701;BME280;15877;52.344;16.790;2023-03-04T07:05:37;100337.77;;;5.24;73.85
28701;BME280;15877;52.344;16.790;2023-03-04T07:08:10;100337.44;;;5.46;73.51
28701;BME280;15877;52.344;16.790;2023-03-04T07:10:43;100336.05;;;5.43;73.49
28701;BME280;15877;52.344;16.790;2023-03-04T07:13:15;100333.89;;;5.28;74.04
28701;BME280;15877;52.344;16.790;2023-03-04T07:15:47;100332.08;;;5.36;74.16
28701;BME280;15877;52.344;16.790;2023-03-04T07:18:20;100332.17;;;5.46;73.66
28701;BME280;15877;52.344;16.790;2023-03-04T07:20:53;100333.48;;;5.30;74.54
28701;BME280;15877;52.344;16.790;2023-03-04T07:23:26;100332.01;;;5.42;74.12
28701;BME280;15877;52.344;16.790;2023-03-04T07:25:58;100333.02;;;5.36;74.33
28701;BME280;15877;52.344;16.790;2023-03-04T07:28:31;100336.28;;;5.56;73.87
28701;BME280;15877;52.344;16.790;2023-03-04T07:31:20;100329.75;;;5.68;73.43
28701;BME280;15877;52.344;16.790;2023-03-04T07:33:57;100333.80;;;5.67;73.32
28701;BME280;15877;52.344;16.790;2023-03-04T07:36:29;100331.59;;;5.82;72.91
28701;BME280;15877;52.344;16.790;2023-03-04T07:39:02;100326.78;;;5.82;72.80
28701;BME280;15877;52.344;16.790;2023-03-04T07:41:35;100328.30;;;5.71;73.46
28701;BME280;15877;52.344;16.790;2023-03-04T07:44:09;100332.48;;;5.76;73.35
28701;BME280;15877;52.344;16.790;2023-03-04T07:46:43;100317.73;;;5.77;73.25
28701;BME280;15877;52.344;16.790;2023-03-04T07:49:15;100330.30;;;5.81;73.17
28701;BME280;15877;52.344;16.790;2023-03-04T07:51:48;100331.14;;;5.63;73.90
28701;BME280;15877;52.344;16.790;2023-03-04T07:54:20;100325.98;;;5.68;74.09
28701;BME280;15877;52.344;16.790;2023-03-04T07:56:53;100327.05;;;5.65;74.21
28701;BME280;15877;52.344;16.790;2023-03-04T07:59:26;100321.29;;;5.67;74.32
28701;BME280;15877;52.344;16.790;2023-03-04T08:01:58;100321.27;;;5.62;74.53
28701;BME280;15877;52.344;16.790;2023-03-04T08:04:30;100324.14;;;5.72;74.32
28701;BME280;15877;52.344;16.790;2023-03-04T08:07:03;100324.67;;;5.84;73.93
28701;BME280;15877;52.344;16.790;2023-03-04T08:09:35;100307.50;;;5.76;73.87
28701;BME280;15877;52.344;16.790;2023-03-04T08:12:08;100302.09;;;5.65;74.26
28701;BME280;15877;52.344;16.790;2023-03-04T08:14:41;100317.06;;;5.75;74.42
28701;BME280;15877;52.344;16.790;2023-03-04T08:17:13;100314.58;;;5.86;74.18
28701;BME280;15877;52.344;16.790;2023-03-04T08:19:46;100319.15;;;5.90;74.16
28701;BME280;15877;52.344;16.790;2023-03-04T08:22:18;100317.97;;;5.96;74.04
28701;BME280;15877;52.344;16.790;2023-03-04T08:24:50;100313.17;;;5.90;74.10
28701;BME280;15877;52.344;16.790;2023-03-04T08:27:23;100312.12;;;5.74;75.23
28701;BME280;15877;52.344;16.790;2023-03-04T08:29:56;100286.58;;;5.69;74.96
28701;BME280;15877;52.344;16.790;2023-03-04T08:32:28;100314.45;;;5.83;75.21
28701;BME280;15877;52.344;16.790;2023-03-04T08:35:01;100313.45;;;5.76;75.68
28701;BME280;15877;52.344;16.790;2023-03-04T08:37:34;100308.74;;;5.78;76.01
28701;BME280;15877;52.344;16.790;2023-03-04T08:40:08;100310.00;;;5.96;75.55
28701;BME280;15877;52.344;16.790;2023-03-04T08:42:41;100303.05;;;5.97;75.89
28701;BME280;15877;52.344;16.790;2023-03-04T08:45:14;100309.98;;;5.97;76.04
28701;BME280;15877;52.344;16.790;2023-03-04T08:47:46;100308.73;;;5.98;76.27
28701;BME280;15877;52.344;16.790;2023-03-04T08:50:19;100308.59;;;6.00;76.40
28701;BME280;15877;52.344;16.790;2023-03-04T08:52:53;100303.77;;;6.16;76.24
28701;BME280;15877;52.344;16.790;2023-03-04T08:55:25;100303.17;;;6.02;77.00
28701;BME280;15877;52.344;16.790;2023-03-04T08:57:58;100301.58;;;6.06;77.29
28701;BME280;15877;52.344;16.790;2023-03-04T09:00:31;100299.39;;;6.11;77.22
28701;BME280;15877;52.344;16.790;2023-03-04T09:03:04;100294.94;;;6.04;77.46
28701;BME280;15877;52.344;16.790;2023-03-04T09:05:37;100294.55;;;6.10;77.66
28701;BME280;15877;52.344;16.790;2023-03-04T09:08:10;100298.23;;;5.99;77.99
28701;BME280;15877;52.344;16.790;2023-03-04T09:10:43;100295.67;;;6.13;77.85
28701;BME280;15877;52.344;16.790;2023-03-04T09:13:15;100298.73;;;6.04;78.34
28701;BME280;15877;52.344;16.790;2023-03-04T09:15:49;100282.80;;;6.10;77.98
28701;BME280;15877;52.344;16.790;2023-03-04T09:18:24;100296.72;;;6.28;78.12
28701;BME280;15877;52.344;16.790;2023-03-04T09:20:56;100301.99;;;6.07;79.26
28701;BME280;15877;52.344;16.790;2023-03-04T09:23:29;100297.40;;;6.15;79.63
28701;BME280;15877;52.344;16.790;2023-03-04T09:26:08;100298.67;;;6.32;79.00
28701;BME280;15877;52.344;16.790;2023-03-04T09:28:44;100302.58;;;6.29;79.46
28701;BME280;15877;52.344;16.790;2023-03-04T09:31:17;100302.64;;;6.22;80.11
28701;BME280;15877;52.344;16.790;2023-03-04T09:33:51;100295.81;;;6.30;79.94
28701;BME280;15877;52.344;16.790;2023-03-04T09:36:24;100295.96;;;6.18;80.96
28701;BME280;15877;52.344;16.790;2023-03-04T09:39:00;100291.64;;;6.12;81.41
28701;BME280;15877;52.344;16.790;2023-03-04T09:41:38;100287.48;;;6.15;81.59
28701;BME280;15877;52.344;16.790;2023-03-04T09:44:18;100284.07;;;6.40;80.65
28701;BME280;15877;52.344;16.790;2023-03-04T09:46:53;100286.55;;;6.28;81.02
28701;BME280;15877;52.344;16.790;2023-03-04T09:49:29;100284.59;;;6.33;80.77
28701;BME280;15877;52.344;16.790;2023-03-04T09:52:09;100278.63;;;6.33;80.97
28701;BME280;15877;52.344;16.790;2023-03-04T09:55:05;100277.39;;;6.32;81.11
28701;BME280;15877;52.344;16.790;2023-03-04T09:57:51;100279.31;;;6.35;80.94
28701;BME280;15877;52.344;16.790;2023-03-04T10:00:29;100275.30;;;6.40;81.12
28701;BME280;15877;52.344;16.790;2023-03-04T10:03:13;100277.63;;;6.54;80.68
28701;BME280;15877;52.344;16.790;2023-03-04T10:05:52;100279.05;;;6.48;81.00
28701;BME280;15877;52.344;16.790;2023-03-04T10:08:39;100275.10;;;6.45;80.81
28701;BME280;15877;52.344;16.790;2023-03-04T10:11:16;100275.15;;;6.57;80.64
28701;BME280;15877;52.344;16.790;2023-03-04T10:13:56;100274.41;;;6.48;81.28
28701;BME280;15877;52.344;16.790;2023-03-04T10:16:36;100279.12;;;6.60;81.01
28701;BME280;15877;52.344;16.790;2023-03-04T10:19:30;100279.17;;;6.64;80.62
28701;BME280;15877;52.344;16.790;2023-03-04T10:22:18;100272.34;;;6.76;80.49
28701;BME280;15877;52.344;16.790;2023-03-04T10:24:53;100269.96;;;6.80;80.48
28701;BME280;15877;52.344;16.790;2023-03-04T10:27:27;100268.05;;;6.82;80.54
28701;BME280;15877;52.344;16.790;2023-03-04T10:30:01;100269.21;;;6.93;79.91
28701;BME280;15877;52.344;16.790;2023-03-04T10:32:33;100263.67;;;7.02;78.94
28701;BME280;15877;52.344;16.790;2023-03-04T10:35:12;100264.60;;;7.06;78.31
28701;BME280;15877;52.344;16.790;2023-03-04T10:37:48;100265.31;;;7.14;77.96
28701;BME280;15877;52.344;16.790;2023-03-04T10:40:23;100261.33;;;7.27;77.18
28701;BME280;15877;52.344;16.790;2023-03-04T10:42:57;100263.62;;;7.29;76.70
28701;BME280;15877;52.344;16.790;2023-03-04T10:45:31;100262.33;;;7.28;75.80
28701;BME280;15877;52.344;16.790;2023-03-04T10:48:08;100250.37;;;7.22;75.90
28701;BME280;15877;52.344;16.790;2023-03-04T10:50:48;100264.46;;;7.26;75.91
28701;BME280;15877;52.344;16.790;2023-03-04T10:53:27;100263.45;;;7.26;75.08
28701;BME280;15877;52.344;16.790;2023-03-04T10:56:04;100257.09;;;7.32;75.10
28701;BME280;15877;52.344;16.790;2023-03-04T10:59:30;100246.45;;;7.38;74.73
28701;BME280;15877;52.344;16.790;2023-03-04T11:02:14;100247.17;;;7.51;74.57
28701;BME280;15877;52.344;16.790;2023-03-04T11:04:52;100252.52;;;7.56;74.19
28701;BME280;15877;52.344;16.790;2023-03-04T11:07:26;100248.67;;;7.57;73.66
28701;BME280;15877;52.344;16.790;2023-03-04T11:10:08;100228.09;;;7.57;73.56
28701;BME280;15877;52.344;16.790;2023-03-04T11:12:41;100238.23;;;7.59;74.25
28701;BME280;15877;52.344;16.790;2023-03-04T11:15:20;100255.17;;;7.55;74.70
28701;BME280;15877;52.344;16.790;2023-03-04T11:18:00;100247.83;;;7.44;75.21
28701;BME280;15877;52.344;16.790;2023-03-04T11:20:35;100245.55;;;7.47;75.71
28701;BME280;15877;52.344;16.790;2023-03-04T11:23:15;100240.60;;;7.53;76.23
28701;BME280;15877;52.344;16.790;2023-03-04T11:25:51;100245.39;;;7.57;76.23
28701;BME280;15877;52.344;16.790;2023-03-04T11:28:31;100240.00;;;7.47;76.33
28701;BME280;15877;52.344;16.790;2023-03-04T11:31:11;100243.45;;;7.56;75.53
28701;BME280;15877;52.344;16.790;2023-03-04T11:33:48;100243.61;;;7.59;74.73
28701;BME280;15877;52.344;16.790;2023-03-04T11:36:32;100246.08;;;7.54;75.32
28701;BME280;15877;52.344;16.790;2023-03-04T11:39:15;100247.96;;;7.56;75.33
28701;BME280;15877;52.344;16.790;2023-03-04T11:41:55;100247.27;;;7.39;76.02
28701;BME280;15877;52.344;16.790;2023-03-04T11:44:30;100243.41;;;7.50;76.66
28701;BME280;15877;52.344;16.790;2023-03-04T11:47:17;100237.87;;;7.52;77.39
28701;BME280;15877;52.344;16.790;2023-03-04T11:50:04;100238.33;;;7.46;77.16
28701;BME280;15877;52.344;16.790;2023-03-04T11:52:56;100224.94;;;7.42;76.83
28701;BME280;15877;52.344;16.790;2023-03-04T11:55:37;100240.05;;;7.51;76.75
28701;BME280;15877;52.344;16.790;2023-03-04T12:01:29;100228.52;;;7.45;75.81
28701;BME280;15877;52.344;16.790;2023-03-04T12:04:23;100205.92;;;7.35;75.39
28701;BME280;15877;52.344;16.790;2023-03-04T12:07:10;100230.64;;;7.58;75.55
28701;BME280;15877;52.344;16.790;2023-03-04T12:09:56;100231.02;;;7.68;74.77
28701;BME280;15877;52.344;16.790;2023-03-04T12:12:46;100229.21;;;7.58;74.14
28701;BME280;15877;52.344;16.790;2023-03-04T12:15:27;100231.52;;;7.61;73.66
28701;BME280;15877;52.344;16.790;2023-03-04T12:21:12;100214.41;;;7.75;72.41
28701;BME280;15877;52.344;16.790;2023-03-04T12:24:11;100214.96;;;7.70;71.57
28701;BME280;15877;52.344;16.790;2023-03-04T12:26:50;100211.34;;;7.75;69.63
28701;BME280;15877;52.344;16.790;2023-03-04T12:29:31;100207.88;;;7.81;69.22
28701;BME280;15877;52.344;16.790;2023-03-04T12:32:12;100209.12;;;7.78;68.46
28701;BME280;15877;52.344;16.790;2023-03-04T12:35:13;100215.29;;;7.89;68.22
28701;BME280;15877;52.344;16.790;2023-03-04T12:37:57;100214.36;;;7.98;68.21
28701;BME280;15877;52.344;16.790;2023-03-04T12:40:41;100212.08;;;8.03;67.23
28701;BME280;15877;52.344;16.790;2023-03-04T12:43:28;100199.25;;;8.00;66.89
28701;BME280;15877;52.344;16.790;2023-03-04T12:46:16;100215.23;;;7.98;66.80
28701;BME280;15877;52.344;16.790;2023-03-04T12:49:05;100208.98;;;7.95;67.26
28701;BME280;15877;52.344;16.790;2023-03-04T12:51:45;100224.33;;;7.92;67.41
28701;BME280;15877;52.344;16.790;2023-03-04T12:54:27;100200.39;;;7.93;67.13
28701;BME280;15877;52.344;16.790;2023-03-04T12:57:06;100209.42;;;7.99;66.74
28701;BME280;15877;52.344;16.790;2023-03-04T12:59:46;100230.11;;;7.96;66.03
28701;BME280;15877;52.344;16.790;2023-03-04T13:02:34;100231.45;;;7.77;65.05
28701;BME280;15877;52.344;16.790;2023-03-04T13:05:39;100228.45;;;7.75;65.09
28701;BME280;15877;52.344;16.790;2023-03-04T13:08:32;100237.46;;;7.77;65.07
28701;BME280;15877;52.344;16.790;2023-03-04T13:11:40;100224.89;;;7.58;65.44
28701;BME280;15877;52.344;16.790;2023-03-04T13:14:28;100238.65;;;7.70;64.90
28701;BME280;15877;52.344;16.790;2023-03-04T13:17:05;100231.10;;;7.55;65.27
28701;BME280;15877;52.344;16.790;2023-03-04T13:19:51;100247.34;;;7.59;65.87
28701;BME280;15877;52.344;16.790;2023-03-04T13:25:41;100251.46;;;7.65;65.16
28701;BME280;15877;52.344;16.790;2023-03-04T13:31:17;100261.61;;;7.51;68.77
28701;BME280;15877;52.344;16.790;2023-03-04T13:34:03;100267.14;;;7.43;69.65
28701;BME280;15877;52.344;16.790;2023-03-04T13:36:56;100271.03;;;7.24;70.83
28701;BME280;15877;52.344;16.790;2023-03-04T13:39:31;100267.88;;;7.17;71.29
28701;BME280;15877;52.344;16.790;2023-03-04T13:45:36;100270.83;;;7.10;71.24
28701;BME280;15877;52.344;16.790;2023-03-04T13:48:24;100275.46;;;7.10;71.13
28701;BME280;15877;52.344;16.790;2023-03-04T13:50:58;100275.60;;;7.07;71.73